createdAt,value
2022-08-22T00:00:24.942Z,89.46
2022-08-22T00:01:10.830Z,89.54
2022-08-22T00:02:05.250Z,89.85
2022-08-22T00:02:42.589Z,90.23
2022-08-22T00:02:44.828Z,88.71
2022-08-22T00:02:47.156Z,90.78
2022-08-22T00:02:53.912Z,91.05
2022-08-22T00:02:55.204Z,91.96
2022-08-22T00:02:55.559Z,89.85
2022-08-22T00:03:01.343Z,91.23
2022-08-22T00:03:02.491Z,89.79
2022-08-22T00:03:07.585Z,90.24
2022-08-22T00:03:09.681Z,90.80
2022-08-22T00:04:23.338Z,89.38
2022-08-22T00:05:14.144Z,88.88
2022-08-22T00:06:24.340Z,89.35
2022-08-22T00:07:08.412Z,89.99
2022-08-22T00:08:09.513Z,90.21
2022-08-22T00:08:52.658Z,90.08
2022-08-22T00:09:36.542Z,89.48
2022-08-22T00:10:25.544Z,89.45
2022-08-22T00:11:09.983Z,89.53
2022-08-22T00:12:29.516Z,89.51
2022-08-22T00:13:12.138Z,89.21
2022-08-22T00:14:20.806Z,89.33
2022-08-22T00:15:06.962Z,89.39
2022-08-22T00:15:44.724Z,88.90
2022-08-22T00:16:28.966Z,88.61
2022-08-22T00:17:04.892Z,88.73
2022-08-22T00:17:53.302Z,89.87
2022-08-22T00:18:38.823Z,89.85
2022-08-22T00:19:44.547Z,89.57
2022-08-22T00:20:41.532Z,88.59
2022-08-22T00:21:26.210Z,89.05
2022-08-22T00:22:51.245Z,89.76
2022-08-22T00:23:55.745Z,90.09
2022-08-22T00:25:07.396Z,88.88
2022-08-22T00:26:06.943Z,88.06
2022-08-22T00:26:53.550Z,88.35
2022-08-22T00:27:53.493Z,89.59
2022-08-22T00:28:28.876Z,89.38
2022-08-22T00:29:19.599Z,89.37
2022-08-22T00:29:57.228Z,89.69
2022-08-22T00:30:32.754Z,89.99
2022-08-22T00:31:13.804Z,89.69
2022-08-22T00:32:15.872Z,90.04
2022-08-22T00:33:02.577Z,90.32
2022-08-22T00:33:45.876Z,90.29
2022-08-22T00:34:22.426Z,89.93
2022-08-22T00:35:02.655Z,89.62
2022-08-22T00:35:48.261Z,90.07
2022-08-22T00:36:33.693Z,89.95
2022-08-22T00:37:17.012Z,90.07
2022-08-22T00:38:09.298Z,89.93
2022-08-22T00:38:52.141Z,90.10
2022-08-22T00:39:43.795Z,89.75
2022-08-22T00:40:24.897Z,89.66
2022-08-22T00:41:12.236Z,89.65
2022-08-22T00:42:29.393Z,89.52
2022-08-22T00:43:11.467Z,89.03
2022-08-22T00:43:49.144Z,88.84
2022-08-22T00:44:36.191Z,89.11
2022-08-22T00:45:29.290Z,89.00
2022-08-22T00:46:34.158Z,89.02
2022-08-22T00:47:45.048Z,89.47
2022-08-22T00:48:32.800Z,89.76
2022-08-22T00:49:23.030Z,89.62
2022-08-22T00:50:12.751Z,89.47
2022-08-22T00:50:50.552Z,89.44
2022-08-22T00:51:54.977Z,90.03
2022-08-22T00:52:47.063Z,90.36
2022-08-22T00:53:27.514Z,90.54
2022-08-22T00:54:47.032Z,90.37
2022-08-22T00:56:03.217Z,90.04
2022-08-22T00:56:38.409Z,90.31
2022-08-22T00:57:22.460Z,89.94
2022-08-22T00:58:06.446Z,89.70
2022-08-22T00:59:23.074Z,89.22
2022-08-22T01:00:09.427Z,89.00
2022-08-22T01:00:54.476Z,88.76
2022-08-22T01:01:32.545Z,88.91
2022-08-22T01:02:21.827Z,88.81
2022-08-22T01:03:16.795Z,88.53
2022-08-22T01:04:07.552Z,88.87
2022-08-22T01:04:58.401Z,89.10
2022-08-22T01:05:42.252Z,88.97
2022-08-22T01:06:23.268Z,89.03
2022-08-22T01:06:57.699Z,89.07
2022-08-22T01:07:44.049Z,89.11
2022-08-22T01:08:37.797Z,89.11
2022-08-22T01:09:15.998Z,89.41
2022-08-22T01:09:50.658Z,89.43
2022-08-22T01:11:01.396Z,89.48
2022-08-22T01:12:11.909Z,88.86
2022-08-22T01:12:53.182Z,89.23
2022-08-22T01:13:50.501Z,89.54
2022-08-22T01:14:37.963Z,89.37
2022-08-22T01:15:16.501Z,89.34
2022-08-22T01:15:53.454Z,89.40
2022-08-22T01:17:00.821Z,89.52
2022-08-22T01:17:32.712Z,90.35
2022-08-22T01:18:40.281Z,90.70
2022-08-22T01:19:33.038Z,91.12
2022-08-22T01:20:30.685Z,91.31
2022-08-22T01:21:28.568Z,91.41
2022-08-22T01:22:12.294Z,91.45
2022-08-22T01:22:59.278Z,92.02
2022-08-22T01:23:37.070Z,91.94
2022-08-22T01:24:31.100Z,92.06
2022-08-22T01:25:22.342Z,91.89
2022-08-22T01:26:23.015Z,91.78
2022-08-22T01:26:57.971Z,91.60
2022-08-22T01:27:44.919Z,91.61
2022-08-22T01:28:23.264Z,91.74
2022-08-22T01:29:14.622Z,91.71
2022-08-22T01:30:13.101Z,91.79
2022-08-22T01:30:57.056Z,91.45
2022-08-22T01:31:47.444Z,90.90
2022-08-22T01:32:56.814Z,90.42
2022-08-22T01:34:06.421Z,91.22
2022-08-22T01:34:54.431Z,91.68
2022-08-22T01:35:58.600Z,92.37
2022-08-22T01:36:57.984Z,92.13
2022-08-22T01:37:45.678Z,91.80
2022-08-22T01:38:42.010Z,91.54
2022-08-22T01:39:35.704Z,91.23
2022-08-22T01:40:19.796Z,91.18
2022-08-22T01:41:31.082Z,91.04
2022-08-22T01:42:05.783Z,90.87
2022-08-22T01:42:46.458Z,90.67
2022-08-22T01:43:21.023Z,90.73
2022-08-22T01:44:22.177Z,90.59
2022-08-22T01:45:15.076Z,90.86
2022-08-22T01:46:01.586Z,91.12
2022-08-22T01:46:44.994Z,90.80
2022-08-22T01:47:28.847Z,90.45
2022-08-22T01:48:14.297Z,90.19
2022-08-22T01:48:52.980Z,90.36
2022-08-22T01:49:37.511Z,90.32
2022-08-22T01:50:33.348Z,90.39
2022-08-22T01:51:33.264Z,90.65
2022-08-22T01:52:15.426Z,91.03
2022-08-22T01:53:16.273Z,90.79
2022-08-22T01:53:48.122Z,90.71
2022-08-22T01:54:45.312Z,90.33
2022-08-22T01:55:23.063Z,90.33
2022-08-22T01:56:21.485Z,90.17
2022-08-22T01:57:02.281Z,90.05
2022-08-22T01:58:01.100Z,90.33
2022-08-22T01:58:37.452Z,90.77
2022-08-22T01:59:15.922Z,90.78
2022-08-22T02:00:07.094Z,90.86
2022-08-22T02:01:20.471Z,90.27
2022-08-22T02:02:09.269Z,90.28
2022-08-22T02:02:53.331Z,90.60
2022-08-22T02:03:42.749Z,90.47
2022-08-22T02:04:17.758Z,90.42
2022-08-22T02:04:52.453Z,90.45
2022-08-22T02:05:33.693Z,90.80
2022-08-22T02:06:14.631Z,90.71
2022-08-22T02:07:31.567Z,90.67
2022-08-22T02:08:28.585Z,90.24
2022-08-22T02:09:41.950Z,90.56
2022-08-22T02:10:40.471Z,90.95
2022-08-22T02:11:35.156Z,90.85
2022-08-22T02:12:22.269Z,90.58
2022-08-22T02:13:05.849Z,90.39
2022-08-22T02:13:52.018Z,90.71
2022-08-22T02:14:44.125Z,91.40
2022-08-22T02:15:18.699Z,91.44
2022-08-22T02:16:06.712Z,91.41
2022-08-22T02:16:46.103Z,90.87
2022-08-22T02:17:28.308Z,90.83
2022-08-22T02:18:12.377Z,91.04
2022-08-22T02:19:00.312Z,91.06
2022-08-22T02:19:44.673Z,91.09
2022-08-22T02:20:28.776Z,91.37
2022-08-22T02:21:13.899Z,91.71
2022-08-22T02:22:25.809Z,91.81
2022-08-22T02:23:25.011Z,91.52
2022-08-22T02:24:03.469Z,90.54
2022-08-22T02:24:53.424Z,90.90
2022-08-22T02:25:47.118Z,91.39
2022-08-22T02:26:47.714Z,91.29
2022-08-22T02:27:49.233Z,91.28
2022-08-22T02:28:32.441Z,91.31
2022-08-22T02:29:14.264Z,90.95
2022-08-22T02:30:17.039Z,90.60
2022-08-22T02:31:00.584Z,90.92
2022-08-22T02:31:40.327Z,90.66
2022-08-22T02:32:46.970Z,90.80
2022-08-22T02:33:36.633Z,90.98
2022-08-22T02:34:37.861Z,90.94
2022-08-22T02:35:12.684Z,90.75
2022-08-22T02:35:54.674Z,90.26
2022-08-22T02:36:40.706Z,90.38
2022-08-22T02:37:30.057Z,90.21
2022-08-22T02:38:41.033Z,90.45
2022-08-22T02:39:28.031Z,90.63
2022-08-22T02:40:15.310Z,90.49
2022-08-22T02:41:00.498Z,90.59
2022-08-22T02:41:47.396Z,90.85
2022-08-22T02:42:46.717Z,90.79
2022-08-22T02:43:35.790Z,90.29
2022-08-22T02:44:21.144Z,90.43
2022-08-22T02:45:06.009Z,90.91
2022-08-22T02:45:45.909Z,91.12
2022-08-22T02:46:24.097Z,91.26
2022-08-22T02:47:05.567Z,91.32
2022-08-22T02:47:57.357Z,90.77
2022-08-22T02:48:58.745Z,90.85
2022-08-22T02:49:36.042Z,90.65
2022-08-22T02:50:47.592Z,90.64
2022-08-22T02:51:36.042Z,90.93
2022-08-22T02:52:18.885Z,90.86
2022-08-22T02:53:17.303Z,91.02
2022-08-22T02:54:09.038Z,91.40
2022-08-22T02:55:06.511Z,91.08
2022-08-22T02:56:03.927Z,91.17
2022-08-22T02:56:43.169Z,90.99
2022-08-22T02:57:39.342Z,90.44
2022-08-22T02:58:29.174Z,90.43
2022-08-22T02:59:16.597Z,90.68
2022-08-22T03:00:31.189Z,90.68
2022-08-22T03:01:36.550Z,90.49
2022-08-22T03:02:27.760Z,90.15
2022-08-22T03:03:00.953Z,89.98
2022-08-22T03:03:38.791Z,89.78
2022-08-22T03:04:42.937Z,89.86
2022-08-22T03:05:17.519Z,90.05
2022-08-22T03:06:01.072Z,89.98
2022-08-22T03:06:39.556Z,89.77
2022-08-22T03:07:20.505Z,89.93
2022-08-22T03:08:17.153Z,90.42
2022-08-22T03:09:16.667Z,90.27
2022-08-22T03:10:18.052Z,90.19
2022-08-22T03:11:10.664Z,90.00
2022-08-22T03:12:18.243Z,90.04
2022-08-22T03:13:10.989Z,90.10
2022-08-22T03:14:04.466Z,90.13
2022-08-22T03:14:47.487Z,90.39
2022-08-22T03:15:28.043Z,90.64
2022-08-22T03:16:10.516Z,90.67
2022-08-22T03:17:00.897Z,90.59
2022-08-22T03:17:56.822Z,90.80
2022-08-22T03:18:31.617Z,91.38
2022-08-22T03:19:03.499Z,91.72
2022-08-22T03:20:00.460Z,91.71
2022-08-22T03:21:14.758Z,91.17
2022-08-22T03:22:01.251Z,90.58
2022-08-22T03:23:13.095Z,90.43
2022-08-22T03:23:47.820Z,91.09
2022-08-22T03:24:31.769Z,91.51
2022-08-22T03:25:27.073Z,91.58
2022-08-22T03:26:26.879Z,90.83
2022-08-22T03:27:14.283Z,90.38
2022-08-22T03:28:11.745Z,89.77
2022-08-22T03:29:00.005Z,90.15
2022-08-22T03:29:44.849Z,90.28
2022-08-22T03:30:21.844Z,90.08
2022-08-22T03:31:01.477Z,90.40
2022-08-22T03:31:33.544Z,90.76
2022-08-22T03:32:10.574Z,90.85
2022-08-22T03:33:19.891Z,90.90
2022-08-22T03:34:22.988Z,90.69
2022-08-22T03:35:04.886Z,90.47
2022-08-22T03:36:13.745Z,90.23
2022-08-22T03:37:23.199Z,90.32
2022-08-22T03:38:11.141Z,90.19
2022-08-22T03:38:49.938Z,90.18
2022-08-22T03:39:43.631Z,90.33
2022-08-22T03:40:31.767Z,90.33
2022-08-22T03:41:12.701Z,90.40
2022-08-22T03:42:02.930Z,90.83
2022-08-22T03:42:40.906Z,91.08
2022-08-22T03:43:28.492Z,91.06
2022-08-22T03:44:12.690Z,90.96
2022-08-22T03:44:59.757Z,91.09
2022-08-22T03:45:43.203Z,91.35
2022-08-22T03:46:46.035Z,91.34
2022-08-22T03:47:23.520Z,91.09
2022-08-22T03:48:04.399Z,90.87
2022-08-22T03:48:45.320Z,90.58
2022-08-22T03:50:00.169Z,90.80
2022-08-22T03:50:56.548Z,91.20
2022-08-22T03:52:05.110Z,91.67
2022-08-22T03:53:10.418Z,92.17
2022-08-22T03:54:10.211Z,92.45
2022-08-22T03:55:05.090Z,91.89
2022-08-22T03:55:55.318Z,91.93
2022-08-22T03:57:14.769Z,91.92
2022-08-22T03:57:52.502Z,91.68
2022-08-22T03:58:33.316Z,91.63
2022-08-22T03:59:17.484Z,91.73
2022-08-22T04:00:05.240Z,91.56
2022-08-22T04:00:59.901Z,91.87
2022-08-22T04:01:58.644Z,91.93
2022-08-22T04:02:43.984Z,91.77
2022-08-22T04:03:38.304Z,91.51
2022-08-22T04:04:40.979Z,91.45
2022-08-22T04:05:14.263Z,91.47
2022-08-22T04:06:27.336Z,91.42
2022-08-22T04:07:46.514Z,91.55
2022-08-22T04:08:46.003Z,90.90
2022-08-22T04:09:43.928Z,91.28
2022-08-22T04:10:33.956Z,91.49
2022-08-22T04:11:36.383Z,91.36
2022-08-22T04:12:43.171Z,91.44
2022-08-22T04:13:52.808Z,91.42
2022-08-22T04:14:58.632Z,91.45
2022-08-22T04:15:42.519Z,91.32
2022-08-22T04:16:41.130Z,91.29
2022-08-22T04:18:06.959Z,91.34
2022-08-22T04:19:08.190Z,91.88
2022-08-22T04:19:49.155Z,91.54
2022-08-22T04:20:56.739Z,91.65
2022-08-22T04:22:11.408Z,91.05
2022-08-22T04:23:03.528Z,90.92
2022-08-22T04:23:44.721Z,90.66
2022-08-22T04:24:34.211Z,91.00
2022-08-22T04:25:23.416Z,91.15
2022-08-22T04:26:11.898Z,91.17
2022-08-22T04:27:05.993Z,91.26
2022-08-22T04:27:55.867Z,91.31
2022-08-22T04:28:43.387Z,91.52
2022-08-22T04:29:32.245Z,91.56
2022-08-22T04:30:32.956Z,91.53
2022-08-22T04:31:15.107Z,91.37
2022-08-22T04:32:22.096Z,91.10
2022-08-22T04:33:37.977Z,91.01
2022-08-22T04:34:22.415Z,90.80
2022-08-22T04:35:02.371Z,90.80
2022-08-22T04:35:55.367Z,90.58
2022-08-22T04:36:35.457Z,90.56
2022-08-22T04:37:17.964Z,90.99
2022-08-22T04:38:01.926Z,91.21
2022-08-22T04:38:48.827Z,91.34
2022-08-22T04:39:30.077Z,91.40
2022-08-22T04:40:11.463Z,91.44
2022-08-22T04:41:02.598Z,91.42
2022-08-22T04:42:31.290Z,91.19
2022-08-22T04:43:17.924Z,90.62
2022-08-22T04:44:05.745Z,90.50
2022-08-22T04:44:52.566Z,90.60
2022-08-22T04:45:51.600Z,90.20
2022-08-22T04:46:47.315Z,90.43
2022-08-22T04:47:37.537Z,90.65
2022-08-22T04:48:36.539Z,91.56
2022-08-22T04:49:24.838Z,91.33
2022-08-22T04:50:26.361Z,91.49
2022-08-22T04:51:05.455Z,91.91
2022-08-22T04:51:51.237Z,91.96
2022-08-22T04:52:49.270Z,91.95
2022-08-22T04:53:47.039Z,92.18
2022-08-22T04:54:32.916Z,92.03
2022-08-22T04:55:33.071Z,91.91
2022-08-22T04:56:47.924Z,91.75
2022-08-22T04:57:29.150Z,91.95
2022-08-22T04:58:22.237Z,91.98
2022-08-22T04:59:04.754Z,91.59
2022-08-22T04:59:37.167Z,90.80
2022-08-22T05:00:11.626Z,90.68
2022-08-22T05:01:07.671Z,91.01
2022-08-22T05:01:55.710Z,91.09
2022-08-22T05:02:28.220Z,91.27
2022-08-22T05:03:03.406Z,90.88
2022-08-22T05:03:45.060Z,90.50
2022-08-22T05:04:26.666Z,90.28
2022-08-22T05:05:13.240Z,90.20
2022-08-22T05:05:49.630Z,90.19
2022-08-22T05:06:26.569Z,90.13
2022-08-22T05:07:24.052Z,89.15
2022-08-22T05:08:00.566Z,88.67
2022-08-22T05:08:36.189Z,88.40
2022-08-22T05:09:16.472Z,88.27
2022-08-22T05:10:10.536Z,88.54
2022-08-22T05:10:47.087Z,88.51
2022-08-22T05:11:22.273Z,88.25
2022-08-22T05:12:01.034Z,88.14
2022-08-22T05:12:38.409Z,88.38
2022-08-22T05:13:18.287Z,88.67
2022-08-22T05:14:37.805Z,88.53
2022-08-22T05:15:23.249Z,88.60
2022-08-22T05:15:59.729Z,88.51
2022-08-22T05:16:40.765Z,88.64
2022-08-22T05:17:17.622Z,88.75
2022-08-22T05:17:55.800Z,88.72
2022-08-22T05:18:43.624Z,88.50
2022-08-22T05:19:28.451Z,88.41
2022-08-22T05:20:09.054Z,88.30
2022-08-22T05:20:45.260Z,88.18
2022-08-22T05:21:23.372Z,88.01
2022-08-22T05:22:00.897Z,87.72
2022-08-22T05:22:40.021Z,88.25
2022-08-22T05:23:19.039Z,88.36
2022-08-22T05:24:11.624Z,87.86
2022-08-22T05:24:48.509Z,87.07
2022-08-22T05:25:36.317Z,86.82
2022-08-22T05:26:11.045Z,87.39
2022-08-22T05:26:50.481Z,87.41
2022-08-22T05:27:31.552Z,87.44
2022-08-22T05:28:20.750Z,87.62
2022-08-22T05:29:02.059Z,87.18
2022-08-22T05:29:34.685Z,87.21
2022-08-22T05:30:16.251Z,87.26
2022-08-22T05:30:48.934Z,86.41
2022-08-22T05:31:30.107Z,86.30
2022-08-22T05:32:11.067Z,86.90
2022-08-22T05:32:54.608Z,87.53
2022-08-22T05:33:46.760Z,87.66
2022-08-22T05:34:26.568Z,87.83
2022-08-22T05:35:02.128Z,88.56
2022-08-22T05:35:46.035Z,87.73
2022-08-22T05:36:32.469Z,87.57
2022-08-22T05:37:20.805Z,86.65
2022-08-22T05:37:56.002Z,87.11
2022-08-22T05:38:34.492Z,87.15
2022-08-22T05:39:13.391Z,87.49
2022-08-22T05:39:49.812Z,87.58
2022-08-22T05:40:28.198Z,87.57
2022-08-22T05:41:07.358Z,87.08
2022-08-22T05:41:41.147Z,86.56
2022-08-22T05:42:26.485Z,86.85
2022-08-22T05:42:59.048Z,87.12
2022-08-22T05:43:34.955Z,87.08
2022-08-22T05:44:34.274Z,87.18
2022-08-22T05:45:12.287Z,87.65
2022-08-22T05:45:47.397Z,87.98
2022-08-22T05:46:27.272Z,87.52
2022-08-22T05:47:14.104Z,87.91
2022-08-22T05:48:03.344Z,87.89
2022-08-22T05:48:43.629Z,87.71
2022-08-22T05:49:49.749Z,87.51
2022-08-22T05:50:34.808Z,87.83
2022-08-22T05:51:21.707Z,87.33
2022-08-22T05:52:25.628Z,86.96
2022-08-22T05:53:10.182Z,86.40
2022-08-22T05:53:48.458Z,86.80
2022-08-22T05:54:33.888Z,86.82
2022-08-22T05:55:27.135Z,86.98
2022-08-22T05:56:08.793Z,87.12
2022-08-22T05:57:10.415Z,87.38
2022-08-22T05:57:48.542Z,87.38
2022-08-22T05:58:42.709Z,87.09
2022-08-22T05:59:43.746Z,87.23
2022-08-22T06:00:22.090Z,87.49
2022-08-22T06:01:03.374Z,88.01
2022-08-22T06:02:07.707Z,87.81
2022-08-22T06:02:56.187Z,87.60
2022-08-22T06:03:38.897Z,87.93
2022-08-22T06:04:39.202Z,88.05
2022-08-22T06:05:12.416Z,87.86
2022-08-22T06:05:50.040Z,87.75
2022-08-22T06:06:25.540Z,87.40
2022-08-22T06:07:05.085Z,87.38
2022-08-22T06:07:49.353Z,87.69
2022-08-22T06:08:48.642Z,87.96
2022-08-22T06:09:43.729Z,86.89
2022-08-22T06:10:25.870Z,86.77
2022-08-22T06:11:04.379Z,86.87
2022-08-22T06:11:47.302Z,86.52
2022-08-22T06:12:26.513Z,86.77
2022-08-22T06:13:41.500Z,86.30
2022-08-22T06:14:40.659Z,85.84
2022-08-22T06:15:27.578Z,85.72
2022-08-22T06:16:01.556Z,85.89
2022-08-22T06:16:47.314Z,85.96
2022-08-22T06:17:25.921Z,86.08
2022-08-22T06:18:03.415Z,85.02
2022-08-22T06:18:38.491Z,85.08
2022-08-22T06:19:19.971Z,85.27
2022-08-22T06:19:54.210Z,85.37
2022-08-22T06:20:37.454Z,85.28
2022-08-22T06:21:21.064Z,85.81
2022-08-22T06:21:55.077Z,86.39
2022-08-22T06:22:31.375Z,85.59
2022-08-22T06:23:07.388Z,85.95
2022-08-22T06:23:53.253Z,86.02
2022-08-22T06:24:27.676Z,85.93
2022-08-22T06:25:27.758Z,85.97
2022-08-22T06:26:01.443Z,85.94
2022-08-22T06:26:40.243Z,86.11
2022-08-22T06:27:16.220Z,86.51
2022-08-22T06:27:50.891Z,86.65
2022-08-22T06:28:26.559Z,86.34
2022-08-22T06:29:01.079Z,86.10
2022-08-22T06:29:36.246Z,85.90
2022-08-22T06:30:12.858Z,85.46
2022-08-22T06:30:46.205Z,85.29
2022-08-22T06:31:28.017Z,84.99
2022-08-22T06:32:04.174Z,85.06
2022-08-22T06:32:59.985Z,85.09
2022-08-22T06:33:38.516Z,85.51
2022-08-22T06:34:24.612Z,85.23
2022-08-22T06:35:10.665Z,85.19
2022-08-22T06:36:07.936Z,86.09
2022-08-22T06:36:44.503Z,85.81
2022-08-22T06:37:34.237Z,85.43
2022-08-22T06:38:06.477Z,84.93
2022-08-22T06:39:08.117Z,84.00
2022-08-22T06:39:44.144Z,84.11
2022-08-22T06:40:17.800Z,84.59
2022-08-22T06:40:54.447Z,84.70
2022-08-22T06:41:30.315Z,85.06
2022-08-22T06:42:12.235Z,85.00
2022-08-22T06:42:50.975Z,85.35
2022-08-22T06:43:24.982Z,85.41
2022-08-22T06:43:59.215Z,85.29
2022-08-22T06:44:35.885Z,85.42
2022-08-22T06:45:10.786Z,85.44
2022-08-22T06:45:43.025Z,85.44
2022-08-22T06:46:18.894Z,84.99
2022-08-22T06:46:54.099Z,84.73
2022-08-22T06:47:33.602Z,85.32
2022-08-22T06:48:38.272Z,85.35
2022-08-22T06:49:11.986Z,85.39
2022-08-22T06:49:45.755Z,85.43
2022-08-22T06:50:45.495Z,85.54
2022-08-22T06:51:20.372Z,85.09
2022-08-22T06:52:03.250Z,85.27
2022-08-22T06:53:07.529Z,84.92
2022-08-22T06:53:48.257Z,84.61
2022-08-22T06:54:28.681Z,84.93
2022-08-22T06:55:07.459Z,84.86
2022-08-22T06:55:43.437Z,85.26
2022-08-22T06:56:25.621Z,85.79
2022-08-22T06:56:58.038Z,85.88
2022-08-22T06:57:36.142Z,85.82
2022-08-22T06:58:21.769Z,84.24
2022-08-22T06:58:57.369Z,83.26
2022-08-22T06:59:32.694Z,83.56
2022-08-22T07:00:13.290Z,84.26
2022-08-22T07:00:53.525Z,84.26
2022-08-22T07:01:46.597Z,84.58
2022-08-22T07:02:41.271Z,84.86
2022-08-22T07:03:35.199Z,83.94
2022-08-22T07:04:10.279Z,82.95
2022-08-22T07:04:42.851Z,83.09
2022-08-22T07:05:39.656Z,83.14
2022-08-22T07:06:39.215Z,81.68
2022-08-22T07:07:11.175Z,81.02
2022-08-22T07:07:43.365Z,81.78
2022-08-22T07:08:19.914Z,81.95
2022-08-22T07:08:55.904Z,81.47
2022-08-22T07:09:34.747Z,81.71
2022-08-22T07:10:07.367Z,82.50
2022-08-22T07:10:55.744Z,82.92
2022-08-22T07:11:31.199Z,82.69
2022-08-22T07:12:11.093Z,82.17
2022-08-22T07:12:50.902Z,82.57
2022-08-22T07:13:25.275Z,82.55
2022-08-22T07:14:08.203Z,82.71
2022-08-22T07:14:45.000Z,82.87
2022-08-22T07:15:32.479Z,82.76
2022-08-22T07:16:08.389Z,83.09
2022-08-22T07:16:58.029Z,83.44
2022-08-22T07:17:32.824Z,83.50
2022-08-22T07:18:08.888Z,83.48
2022-08-22T07:18:50.423Z,83.14
2022-08-22T07:19:30.510Z,83.28
2022-08-22T07:20:27.003Z,83.04
2022-08-22T07:21:07.315Z,83.62
2022-08-22T07:21:45.829Z,83.92
2022-08-22T07:22:26.955Z,83.92
2022-08-22T07:23:02.950Z,83.78
2022-08-22T07:23:40.542Z,83.19
2022-08-22T07:24:26.028Z,83.35
2022-08-22T07:25:11.121Z,83.44
2022-08-22T07:25:52.642Z,83.31
2022-08-22T07:26:24.785Z,83.31
2022-08-22T07:27:39.972Z,81.99
2022-08-22T07:28:51.247Z,82.00
2022-08-22T07:29:59.025Z,82.66
2022-08-22T07:31:02.006Z,82.91
2022-08-22T07:31:57.984Z,82.62
2022-08-22T07:32:42.053Z,83.19
2022-08-22T07:33:51.710Z,83.19
2022-08-22T07:34:32.413Z,83.12
2022-08-22T07:35:21.693Z,83.39
2022-08-22T07:36:01.725Z,82.48
2022-08-22T07:36:39.474Z,82.43
2022-08-22T07:37:28.165Z,82.35
2022-08-22T07:38:32.751Z,81.98
2022-08-22T07:39:37.582Z,82.34
2022-08-22T07:40:28.301Z,81.93
2022-08-22T07:41:15.629Z,82.40
2022-08-22T07:41:59.603Z,82.10
2022-08-22T07:42:43.552Z,82.89
2022-08-22T07:43:40.422Z,83.11
2022-08-22T07:44:23.154Z,82.85
2022-08-22T07:45:09.354Z,82.86
2022-08-22T07:45:52.189Z,82.81
2022-08-22T07:46:35.147Z,83.00
2022-08-22T07:47:12.654Z,83.31
2022-08-22T07:48:08.286Z,83.21
2022-08-22T07:49:08.163Z,83.26
2022-08-22T07:49:59.902Z,82.96
2022-08-22T07:50:34.945Z,83.33
2022-08-22T07:51:15.388Z,81.43
2022-08-22T07:51:59.296Z,80.39
2022-08-22T07:52:44.816Z,80.75
2022-08-22T07:53:25.381Z,80.30
2022-08-22T07:54:02.588Z,80.37
2022-08-22T07:54:45.524Z,81.41
2022-08-22T07:55:24.050Z,80.62
2022-08-22T07:55:58.645Z,80.44
2022-08-22T07:56:57.734Z,80.80
2022-08-22T07:57:32.670Z,79.96
2022-08-22T07:58:07.956Z,80.28
2022-08-22T07:58:42.435Z,80.42
2022-08-22T07:59:18.963Z,79.22
2022-08-22T07:59:56.677Z,79.76
2022-08-22T08:00:31.562Z,79.42
2022-08-22T08:01:03.966Z,79.24
2022-08-22T08:01:37.722Z,78.87
2022-08-22T08:02:14.116Z,78.54
2022-08-22T08:02:51.037Z,78.43
2022-08-22T08:03:25.732Z,78.09
2022-08-22T08:04:04.883Z,78.62
2022-08-22T08:04:40.594Z,78.69
2022-08-22T08:05:15.196Z,78.95
2022-08-22T08:05:47.539Z,78.76
2022-08-22T08:06:23.338Z,78.82
2022-08-22T08:06:59.864Z,77.62
2022-08-22T08:07:32.493Z,77.90
2022-08-22T08:08:25.890Z,77.98
2022-08-22T08:08:58.432Z,77.38
2022-08-22T08:09:34.626Z,76.80
2022-08-22T08:10:14.390Z,76.93
2022-08-22T08:10:50.755Z,76.17
2022-08-22T08:11:26.495Z,75.72
2022-08-22T08:12:00.513Z,74.68
2022-08-22T08:12:39.928Z,74.51
2022-08-22T08:13:21.917Z,74.23
2022-08-22T08:13:59.343Z,74.48
2022-08-22T08:14:35.786Z,73.93
2022-08-22T08:15:12.509Z,72.90
2022-08-22T08:15:45.886Z,72.61
2022-08-22T08:16:21.449Z,72.92
2022-08-22T08:17:00.886Z,72.76
2022-08-22T08:17:35.732Z,73.04
2022-08-22T08:18:21.957Z,71.19
2022-08-22T08:18:58.019Z,70.77
2022-08-22T08:19:33.456Z,71.25
2022-08-22T08:20:11.919Z,70.58
2022-08-22T08:20:43.942Z,70.16
2022-08-22T08:21:39.120Z,69.47
2022-08-22T08:22:22.971Z,70.34
2022-08-22T08:22:56.548Z,70.50
2022-08-22T08:23:39.069Z,70.36
2022-08-22T08:24:16.362Z,70.58
2022-08-22T08:24:50.756Z,70.82
2022-08-22T08:25:27.541Z,70.19
2022-08-22T08:26:07.135Z,69.67
2022-08-22T08:27:03.935Z,69.93
2022-08-22T08:27:57.943Z,69.03
2022-08-22T08:28:37.573Z,67.86
2022-08-22T08:29:09.752Z,68.14
2022-08-22T08:29:56.351Z,68.63
2022-08-22T08:30:45.513Z,68.21
2022-08-22T08:31:27.799Z,68.77
2022-08-22T08:32:01.322Z,69.49
2022-08-22T08:32:37.662Z,69.70
2022-08-22T08:33:25.449Z,69.99
2022-08-22T08:34:06.601Z,70.76
2022-08-22T08:34:40.198Z,70.61
2022-08-22T08:35:25.682Z,70.51
2022-08-22T08:36:06.172Z,69.84
2022-08-22T08:36:52.492Z,70.87
2022-08-22T08:37:33.371Z,71.02
2022-08-22T08:38:11.553Z,71.28
2022-08-22T08:38:59.915Z,70.91
2022-08-22T08:39:35.028Z,70.46
2022-08-22T08:40:26.260Z,70.08
2022-08-22T08:41:10.242Z,69.12
2022-08-22T08:42:15.769Z,70.38
2022-08-22T08:43:29.828Z,70.21
2022-08-22T08:44:17.121Z,69.03
2022-08-22T08:45:09.162Z,68.38
2022-08-22T08:45:41.083Z,68.87
2022-08-22T08:46:14.285Z,69.75
2022-08-22T08:47:01.221Z,70.20
2022-08-22T08:47:33.071Z,70.52
2022-08-22T08:48:29.660Z,70.36
2022-08-22T08:49:35.033Z,70.22
2022-08-22T08:50:34.650Z,71.04
2022-08-22T08:51:15.766Z,71.21
2022-08-22T08:51:53.783Z,71.59
2022-08-22T08:53:27.744Z,71.09
2022-08-22T08:54:40.529Z,71.71
2022-08-22T08:55:59.143Z,70.98
2022-08-22T08:57:20.694Z,70.05
2022-08-22T08:58:12.950Z,69.99
2022-08-22T08:59:04.296Z,68.94
2022-08-22T09:00:18.066Z,69.63
2022-08-22T09:01:02.313Z,68.75
2022-08-22T09:01:40.275Z,68.48
2022-08-22T09:03:47.162Z,68.78
2022-08-22T09:04:44.401Z,69.04
2022-08-22T09:06:33.266Z,68.73
2022-08-22T09:07:42.956Z,67.46
2022-08-22T09:08:52.686Z,67.58
2022-08-22T09:09:46.267Z,67.58
2022-08-22T09:10:51.022Z,68.03
2022-08-22T09:11:44.451Z,68.66
2022-08-22T09:12:19.152Z,68.77
2022-08-22T09:13:20.540Z,68.42
2022-08-22T09:14:16.493Z,68.62
2022-08-22T09:15:14.622Z,68.79
2022-08-22T09:16:15.750Z,68.50
2022-08-22T09:17:15.900Z,68.50
2022-08-22T09:18:20.248Z,68.10
2022-08-22T09:18:58.453Z,69.07
2022-08-22T09:19:36.009Z,67.62
2022-08-22T09:20:32.806Z,67.99
2022-08-22T09:21:31.492Z,68.01
2022-08-22T09:22:50.870Z,67.69
2022-08-22T09:23:53.193Z,69.34
2022-08-22T09:24:47.012Z,69.12
2022-08-22T09:25:40.467Z,69.48
2022-08-22T09:27:03.798Z,68.76
2022-08-22T09:27:46.410Z,69.13
2022-08-22T09:28:29.244Z,70.30
2022-08-22T09:29:24.830Z,70.70
2022-08-22T09:30:11.534Z,70.53
2022-08-22T09:30:54.138Z,71.23
2022-08-22T09:31:44.941Z,71.17
2022-08-22T09:32:42.768Z,70.69
2022-08-22T09:33:20.332Z,70.85
2022-08-22T09:34:23.850Z,70.94
2022-08-22T09:35:18.674Z,70.45
2022-08-22T09:35:53.527Z,70.48
2022-08-22T09:36:31.303Z,70.95
2022-08-22T09:37:35.186Z,71.47
2022-08-22T09:38:48.674Z,71.22
2022-08-22T09:39:59.707Z,72.40
2022-08-22T09:40:44.445Z,71.83
2022-08-22T09:41:43.848Z,72.57
2022-08-22T09:42:46.406Z,73.09
2022-08-22T09:43:23.919Z,73.74
2022-08-22T09:44:19.436Z,73.85
2022-08-22T09:45:05.482Z,74.58
2022-08-22T09:45:45.433Z,73.90
2022-08-22T09:46:53.494Z,74.37
2022-08-22T09:47:32.634Z,74.67
2022-08-22T09:48:38.771Z,75.55
2022-08-22T09:49:23.505Z,74.55
2022-08-22T09:50:30.839Z,74.87
2022-08-22T09:51:31.871Z,75.57
2022-08-22T09:52:14.535Z,74.32
2022-08-22T09:53:06.128Z,74.04
2022-08-22T09:54:14.225Z,75.44
2022-08-22T09:55:11.814Z,75.96
2022-08-22T09:56:00.993Z,76.23
2022-08-22T09:57:01.371Z,76.33
2022-08-22T09:57:43.976Z,74.92
2022-08-22T09:58:52.869Z,73.66
2022-08-22T09:59:31.686Z,74.17
2022-08-22T10:00:05.589Z,74.10
2022-08-22T10:00:54.540Z,73.66
2022-08-22T10:02:16.828Z,73.94
2022-08-22T10:03:21.957Z,74.53
2022-08-22T10:04:19.553Z,73.42
2022-08-22T10:05:07.148Z,74.22
2022-08-22T10:05:52.882Z,74.33
2022-08-22T10:06:43.373Z,74.37
2022-08-22T10:07:51.539Z,74.83
2022-08-22T10:08:54.094Z,75.40
2022-08-22T10:09:55.013Z,75.35
2022-08-22T10:10:36.886Z,75.60
2022-08-22T10:11:19.509Z,74.62
2022-08-22T10:12:03.264Z,74.88
2022-08-22T10:13:10.241Z,75.13